sensor_id;sensor_type;location;lat;lon;timestamp;pressure;altitude;pressure_sealevel;temperature;humidity
59154;BME280;44935;48.944;9.418;2023-08-12T00:01:54;98963.75;;;23.56;45.47
59154;BME280;44935;48.944;9.418;2023-08-12T00:04:22;98961.62;;;23.47;45.57
59154;BME280;44935;48.944;9.418;2023-08-12T00:06:49;98954.18;;;23.58;44.86
59154;BME280;44935;48.944;9.418;2023-08-12T00:09:16;98957.36;;;23.54;45.25
59154;BME280;44935;48.944;9.418;2023-08-12T00:11:43;98957.78;;;23.77;45.14
59154;BME280;44935;48.944;9.418;2023-08-12T00:14:10;98955.97;;;23.46;45.18
59154;BME280;44935;48.944;9.418;2023-08-12T00:16:38;98954.60;;;23.44;45.04
59154;BME280;44935;48.944;9.418;2023-08-12T00:19:05;98955.24;;;23.07;45.70
59154;BME280;44935;48.944;9.418;2023-08-12T00:21:32;98952.41;;;22.44;46.35
59154;BME280;44935;48.944;9.418;2023-08-12T00:23:59;98953.37;;;22.97;45.63
59154;BME280;44935;48.944;9.418;2023-08-12T00:26:31;98945.16;;;23.53;45.33
59154;BME280;44935;48.944;9.418;2023-08-12T00:28:59;98941.22;;;22.87;46.04
59154;BME280;44935;48.944;9.418;2023-08-12T00:31:26;98935.40;;;22.75;46.19
59154;BME280;44935;48.944;9.418;2023-08-12T00:33:53;98931.63;;;22.55;46.65
59154;BME280;44935;48.944;9.418;2023-08-12T00:36:20;98930.36;;;23.25;45.92
59154;BME280;44935;48.944;9.418;2023-08-12T00:38:47;98926.96;;;22.00;47.08
59154;BME280;44935;48.944;9.418;2023-08-12T00:41:14;98922.70;;;22.69;46.86
59154;BME280;44935;48.944;9.418;2023-08-12T00:43:46;98922.59;;;22.29;47.50
59154;BME280;44935;48.944;9.418;2023-08-12T00:46:13;98917.07;;;21.36;49.28
59154;BME280;44935;48.944;9.418;2023-08-12T00:48:41;98919.88;;;22.21;47.76
59154;BME280;44935;48.944;9.418;2023-08-12T00:51:08;98914.67;;;22.52;47.31
59154;BME280;44935;48.944;9.418;2023-08-12T00:53:36;98911.97;;;22.46;47.28
59154;BME280;44935;48.944;9.418;2023-08-12T00:56:03;98910.30;;;23.20;45.99
59154;BME280;44935;48.944;9.418;2023-08-12T00:58:31;98912.65;;;21.92;47.67
59154;BME280;44935;48.944;9.418;2023-08-12T01:00:58;98907.60;;;22.38;46.84
59154;BME280;44935;48.944;9.418;2023-08-12T01:03:25;98905.55;;;22.41;47.13
59154;BME280;44935;48.944;9.418;2023-08-12T01:05:52;98903.37;;;22.49;46.41
59154;BME280;44935;48.944;9.418;2023-08-12T01:08:19;98901.78;;;23.20;45.65
59154;BME280;44935;48.944;9.418;2023-08-12T01:10:52;98901.26;;;22.72;45.93
59154;BME280;44935;48.944;9.418;2023-08-12T01:13:29;98894.36;;;22.73;45.72
59154;BME280;44935;48.944;9.418;2023-08-12T01:16:00;98892.84;;;22.87;45.51
59154;BME280;44935;48.944;9.418;2023-08-12T01:18:30;98888.67;;;23.43;45.03
59154;BME280;44935;48.944;9.418;2023-08-12T01:20:58;98887.88;;;23.28;44.86
59154;BME280;44935;48.944;9.418;2023-08-12T01:23:26;98887.13;;;23.16;44.72
59154;BME280;44935;48.944;9.418;2023-08-12T01:25:53;98885.07;;;23.30;45.23
59154;BME280;44935;48.944;9.418;2023-08-12T01:28:20;98880.37;;;23.17;45.30
59154;BME280;44935;48.944;9.418;2023-08-12T01:31:06;98879.04;;;23.58;44.56
59154;BME280;44935;48.944;9.418;2023-08-12T01:33:41;98874.31;;;23.27;44.99
59154;BME280;44935;48.944;9.418;2023-08-12T01:36:12;98872.53;;;22.92;45.24
59154;BME280;44935;48.944;9.418;2023-08-12T01:38:44;98872.29;;;22.98;45.44
59154;BME280;44935;48.944;9.418;2023-08-12T01:41:12;98874.79;;;22.52;46.04
59154;BME280;44935;48.944;9.418;2023-08-12T01:43:40;98878.25;;;21.84;47.18
59154;BME280;44935;48.944;9.418;2023-08-12T01:46:09;98881.00;;;21.87;47.24
59154;BME280;44935;48.944;9.418;2023-08-12T01:48:36;98879.32;;;22.50;46.88
59154;BME280;44935;48.944;9.418;2023-08-12T01:51:03;98879.01;;;22.29;46.85
59154;BME280;44935;48.944;9.418;2023-08-12T01:53:30;98879.19;;;21.81;47.27
59154;BME280;44935;48.944;9.418;2023-08-12T01:55:56;98878.11;;;22.02;46.84
59154;BME280;44935;48.944;9.418;2023-08-12T01:58:23;98876.27;;;22.64;45.94
59154;BME280;44935;48.944;9.418;2023-08-12T02:00:50;98873.21;;;22.30;46.39
59154;BME280;44935;48.944;9.418;2023-08-12T02:03:17;98874.47;;;22.17;46.61
59154;BME280;44935;48.944;9.418;2023-08-12T02:05:44;98868.10;;;20.39;49.60
59154;BME280;44935;48.944;9.418;2023-08-12T02:08:11;98873.68;;;22.21;47.38
59154;BME280;44935;48.944;9.418;2023-08-12T02:10:38;98873.02;;;22.15;46.96
59154;BME280;44935;48.944;9.418;2023-08-12T02:13:05;98870.96;;;22.34;46.37
59154;BME280;44935;48.944;9.418;2023-08-12T02:15:32;98871.55;;;22.42;46.53
59154;BME280;44935;48.944;9.418;2023-08-12T02:17:58;98868.33;;;22.50;46.55
59154;BME280;44935;48.944;9.418;2023-08-12T02:20:25;98870.34;;;22.10;47.00
59154;BME280;44935;48.944;9.418;2023-08-12T02:22:52;98867.11;;;22.07;47.02
59154;BME280;44935;48.944;9.418;2023-08-12T02:25:19;98866.90;;;21.77;47.60
59154;BME280;44935;48.944;9.418;2023-08-12T02:27:46;98866.43;;;21.68;47.14
59154;BME280;44935;48.944;9.418;2023-08-12T02:30:13;98867.42;;;21.82;47.51
59154;BME280;44935;48.944;9.418;2023-08-12T02:32:40;98863.56;;;21.35;48.12
59154;BME280;44935;48.944;9.418;2023-08-12T02:35:07;98861.80;;;21.41;47.60
59154;BME280;44935;48.944;9.418;2023-08-12T02:37:34;98855.31;;;20.83;48.75
59154;BME280;44935;48.944;9.418;2023-08-12T02:40:02;98857.67;;;22.08;47.35
59154;BME280;44935;48.944;9.418;2023-08-12T02:42:29;98857.90;;;21.99;47.14
59154;BME280;44935;48.944;9.418;2023-08-12T02:44:56;98855.57;;;21.83;47.71
59154;BME280;44935;48.944;9.418;2023-08-12T02:47:23;98852.32;;;22.26;47.08
59154;BME280;44935;48.944;9.418;2023-08-12T02:49:50;98850.99;;;21.84;47.36
59154;BME280;44935;48.944;9.418;2023-08-12T02:52:17;98845.44;;;21.03;48.70
59154;BME280;44935;48.944;9.418;2023-08-12T02:54:43;98842.78;;;20.51;49.97
59154;BME280;44935;48.944;9.418;2023-08-12T02:57:10;98839.82;;;20.58;50.50
59154;BME280;44935;48.944;9.418;2023-08-12T02:59:37;98840.27;;;18.92;54.11
59154;BME280;44935;48.944;9.418;2023-08-12T03:02:04;98838.78;;;21.05;49.65
59154;BME280;44935;48.944;9.418;2023-08-12T03:04:31;98842.98;;;21.99;47.84
59154;BME280;44935;48.944;9.418;2023-08-12T03:06:58;98843.84;;;22.01;47.27
59154;BME280;44935;48.944;9.418;2023-08-12T03:09:25;98839.10;;;22.76;46.30
59154;BME280;44935;48.944;9.418;2023-08-12T03:11:52;98841.80;;;21.84;48.03
59154;BME280;44935;48.944;9.418;2023-08-12T03:14:19;98837.90;;;22.59;46.23
59154;BME280;44935;48.944;9.418;2023-08-12T03:16:45;98835.77;;;22.67;45.79
59154;BME280;44935;48.944;9.418;2023-08-12T03:19:12;98836.97;;;22.30;46.30
59154;BME280;44935;48.944;9.418;2023-08-12T03:21:39;98834.32;;;22.68;45.97
59154;BME280;44935;48.944;9.418;2023-08-12T03:24:06;98831.03;;;22.72;45.59
59154;BME280;44935;48.944;9.418;2023-08-12T03:26:33;98831.11;;;22.66;45.59
59154;BME280;44935;48.944;9.418;2023-08-12T03:29:00;98832.30;;;22.95;45.04
59154;BME280;44935;48.944;9.418;2023-08-12T03:31:27;98830.93;;;22.76;45.73
59154;BME280;44935;48.944;9.418;2023-08-12T03:33:54;98830.48;;;22.94;45.68
59154;BME280;44935;48.944;9.418;2023-08-12T03:36:21;98831.58;;;22.29;46.63
59154;BME280;44935;48.944;9.418;2023-08-12T03:38:47;98829.81;;;22.72;46.52
59154;BME280;44935;48.944;9.418;2023-08-12T03:41:14;98825.98;;;22.52;46.08
59154;BME280;44935;48.944;9.418;2023-08-12T03:43:42;98824.42;;;22.79;46.13
59154;BME280;44935;48.944;9.418;2023-08-12T03:46:09;98824.90;;;22.36;46.52
59154;BME280;44935;48.944;9.418;2023-08-12T03:48:36;98818.12;;;22.46;46.02
59154;BME280;44935;48.944;9.418;2023-08-12T03:51:03;98820.78;;;22.67;46.47
59154;BME280;44935;48.944;9.418;2023-08-12T03:53:29;98819.52;;;22.37;46.42
59154;BME280;44935;48.944;9.418;2023-08-12T03:55:56;98817.81;;;22.44;46.17
59154;BME280;44935;48.944;9.418;2023-08-12T03:58:23;98818.86;;;22.89;46.09
59154;BME280;44935;48.944;9.418;2023-08-12T04:00:50;98822.20;;;22.54;45.93
59154;BME280;44935;48.944;9.418;2023-08-12T04:03:17;98824.31;;;22.43;46.41
59154;BME280;44935;48.944;9.418;2023-08-12T04:05:48;98830.36;;;22.25;46.82
59154;BME280;44935;48.944;9.418;2023-08-12T04:08:15;98830.07;;;22.61;46.70
59154;BME280;44935;48.944;9.418;2023-08-12T04:10:45;98823.82;;;22.74;46.60
59154;BME280;44935;48.944;9.418;2023-08-12T04:13:13;98826.79;;;22.53;46.68
59154;BME280;44935;48.944;9.418;2023-08-12T04:15:40;98835.03;;;22.48;47.50
59154;BME280;44935;48.944;9.418;2023-08-12T04:18:07;98834.81;;;22.17;47.07
59154;BME280;44935;48.944;9.418;2023-08-12T04:20:35;98831.35;;;22.35;46.83
59154;BME280;44935;48.944;9.418;2023-08-12T04:23:03;98833.33;;;22.61;47.19
59154;BME280;44935;48.944;9.418;2023-08-12T04:25:30;98835.67;;;21.92;47.71
59154;BME280;44935;48.944;9.418;2023-08-12T04:27:57;98839.44;;;22.03;48.19
59154;BME280;44935;48.944;9.418;2023-08-12T04:30:24;98845.35;;;21.46;49.05
59154;BME280;44935;48.944;9.418;2023-08-12T04:32:51;98851.85;;;21.75;49.27
59154;BME280;44935;48.944;9.418;2023-08-12T04:35:19;98845.45;;;21.75;48.87
59154;BME280;44935;48.944;9.418;2023-08-12T04:37:46;98838.90;;;22.30;47.78
59154;BME280;44935;48.944;9.418;2023-08-12T04:40:13;98834.92;;;22.18;47.53
59154;BME280;44935;48.944;9.418;2023-08-12T04:42:45;98837.55;;;22.00;47.49
59154;BME280;44935;48.944;9.418;2023-08-12T04:45:12;98843.08;;;22.23;47.90
59154;BME280;44935;48.944;9.418;2023-08-12T04:47:39;98846.72;;;22.34;47.64
59154;BME280;44935;48.944;9.418;2023-08-12T04:50:07;98846.68;;;21.95;47.98
59154;BME280;44935;48.944;9.418;2023-08-12T04:52:34;98839.98;;;22.14;48.04
59154;BME280;44935;48.944;9.418;2023-08-12T04:55:01;98842.04;;;22.12;47.95
59154;BME280;44935;48.944;9.418;2023-08-12T04:57:28;98853.21;;;21.37;50.07
59154;BME280;44935;48.944;9.418;2023-08-12T04:59:55;98852.89;;;21.24;50.09
59154;BME280;44935;48.944;9.418;2023-08-12T05:02:22;98853.64;;;21.46;50.61
59154;BME280;44935;48.944;9.418;2023-08-12T05:04:50;98855.43;;;20.91;51.53
59154;BME280;44935;48.944;9.418;2023-08-12T05:07:17;98856.31;;;21.44;50.26
59154;BME280;44935;48.944;9.418;2023-08-12T05:09:45;98856.95;;;22.00;49.65
59154;BME280;44935;48.944;9.418;2023-08-12T05:12:17;98854.98;;;21.86;49.00
59154;BME280;44935;48.944;9.418;2023-08-12T05:14:45;98845.58;;;19.80;53.51
59154;BME280;44935;48.944;9.418;2023-08-12T05:17:12;98839.67;;;20.15;52.52
59154;BME280;44935;48.944;9.418;2023-08-12T05:19:39;98851.38;;;21.86;49.38
59154;BME280;44935;48.944;9.418;2023-08-12T05:22:06;98860.24;;;21.93;48.47
59154;BME280;44935;48.944;9.418;2023-08-12T05:24:33;98863.12;;;22.38;48.61
59154;BME280;44935;48.944;9.418;2023-08-12T05:27:00;98848.22;;;20.16;51.53
59154;BME280;44935;48.944;9.418;2023-08-12T05:29:27;98846.01;;;19.18;54.92
59154;BME280;44935;48.944;9.418;2023-08-12T05:31:54;98851.27;;;21.17;51.68
59154;BME280;44935;48.944;9.418;2023-08-12T05:34:21;98867.04;;;21.41;51.39
59154;BME280;44935;48.944;9.418;2023-08-12T05:36:48;98872.18;;;21.89;49.99
59154;BME280;44935;48.944;9.418;2023-08-12T05:39:15;98856.41;;;19.17;55.21
59154;BME280;44935;48.944;9.418;2023-08-12T05:41:42;98847.10;;;18.10;59.33
59154;BME280;44935;48.944;9.418;2023-08-12T05:44:09;98852.17;;;21.31;53.35
59154;BME280;44935;48.944;9.418;2023-08-12T05:46:36;98853.46;;;21.61;51.70
59154;BME280;44935;48.944;9.418;2023-08-12T05:49:04;98837.35;;;18.33;59.42
59154;BME280;44935;48.944;9.418;2023-08-12T05:51:31;98823.49;;;18.55;59.56
59154;BME280;44935;48.944;9.418;2023-08-12T05:53:58;98815.85;;;18.60;60.22
59154;BME280;44935;48.944;9.418;2023-08-12T05:56:25;98818.48;;;20.13;55.99
59154;BME280;44935;48.944;9.418;2023-08-12T05:58:52;98840.98;;;21.28;52.94
59154;BME280;44935;48.944;9.418;2023-08-12T06:01:19;98857.94;;;21.12;52.64
59154;BME280;44935;48.944;9.418;2023-08-12T06:03:51;98869.02;;;21.02;54.29
59154;BME280;44935;48.944;9.418;2023-08-12T06:06:19;98853.84;;;19.94;56.32
59154;BME280;44935;48.944;9.418;2023-08-12T06:08:45;98848.55;;;20.00;56.25
59154;BME280;44935;48.944;9.418;2023-08-12T06:11:12;98842.45;;;20.67;54.03
59154;BME280;44935;48.944;9.418;2023-08-12T06:13:39;98841.54;;;21.04;54.19
59154;BME280;44935;48.944;9.418;2023-08-12T06:16:06;98846.09;;;21.19;52.52
59154;BME280;44935;48.944;9.418;2023-08-12T06:18:33;98857.31;;;21.88;51.94
59154;BME280;44935;48.944;9.418;2023-08-12T06:21:00;98858.32;;;21.54;51.17
59154;BME280;44935;48.944;9.418;2023-08-12T06:23:27;98847.31;;;20.21;56.37
59154;BME280;44935;48.944;9.418;2023-08-12T06:25:54;98840.04;;;19.91;57.39
59154;BME280;44935;48.944;9.418;2023-08-12T06:28:20;98834.62;;;20.48;55.65
59154;BME280;44935;48.944;9.418;2023-08-12T06:30:47;98843.69;;;22.33;52.72
59154;BME280;44935;48.944;9.418;2023-08-12T06:33:20;98855.77;;;22.27;51.73
59154;BME280;44935;48.944;9.418;2023-08-12T06:35:46;98851.36;;;21.60;53.36
59154;BME280;44935;48.944;9.418;2023-08-12T06:38:13;98842.76;;;21.72;53.85
59154;BME280;44935;48.944;9.418;2023-08-12T06:40:46;98832.59;;;20.82;55.52
59154;BME280;44935;48.944;9.418;2023-08-12T06:43:14;98831.81;;;22.33;52.68
59154;BME280;44935;48.944;9.418;2023-08-12T06:45:47;98818.89;;;20.44;57.28
59154;BME280;44935;48.944;9.418;2023-08-12T06:48:14;98808.05;;;19.71;59.67
59154;BME280;44935;48.944;9.418;2023-08-12T06:50:41;98814.16;;;21.63;54.53
59154;BME280;44935;48.944;9.418;2023-08-12T06:53:08;98815.71;;;22.28;52.69
59154;BME280;44935;48.944;9.418;2023-08-12T06:55:34;98818.34;;;22.28;52.15
59154;BME280;44935;48.944;9.418;2023-08-12T06:58:01;98816.03;;;20.50;56.29
59154;BME280;44935;48.944;9.418;2023-08-12T07:00:28;98812.61;;;20.61;56.20
59154;BME280;44935;48.944;9.418;2023-08-12T07:02:55;98812.96;;;22.38;52.75
59154;BME280;44935;48.944;9.418;2023-08-12T07:05:22;98814.47;;;22.61;51.77
59154;BME280;44935;48.944;9.418;2023-08-12T07:07:49;98825.01;;;23.14;51.34
59154;BME280;44935;48.944;9.418;2023-08-12T07:10:16;98835.86;;;23.03;51.18
59154;BME280;44935;48.944;9.418;2023-08-12T07:12:43;98842.85;;;23.35;49.78
59154;BME280;44935;48.944;9.418;2023-08-12T07:15:10;98845.09;;;23.39;50.01
59154;BME280;44935;48.944;9.418;2023-08-12T07:17:37;98849.34;;;23.43;49.62
59154;BME280;44935;48.944;9.418;2023-08-12T07:20:06;98852.05;;;23.32;49.61
59154;BME280;44935;48.944;9.418;2023-08-12T07:22:34;98849.33;;;23.39;49.34
59154;BME280;44935;48.944;9.418;2023-08-12T07:25:07;98845.74;;;23.48;49.47
59154;BME280;44935;48.944;9.418;2023-08-12T07:27:34;98843.47;;;23.22;49.61
59154;BME280;44935;48.944;9.418;2023-08-12T07:30:02;98836.64;;;22.30;53.19
59154;BME280;44935;48.944;9.418;2023-08-12T07:32:28;98840.56;;;23.63;48.89
59154;BME280;44935;48.944;9.418;2023-08-12T07:34:55;98851.07;;;22.89;50.61
59154;BME280;44935;48.944;9.418;2023-08-12T07:37:22;98854.75;;;23.54;49.68
59154;BME280;44935;48.944;9.418;2023-08-12T07:39:49;98849.22;;;23.78;50.09
59154;BME280;44935;48.944;9.418;2023-08-12T07:42:16;98845.58;;;24.09;49.73
59154;BME280;44935;48.944;9.418;2023-08-12T07:44:43;98840.63;;;24.44;49.18
59154;BME280;44935;48.944;9.418;2023-08-12T07:47:10;98841.99;;;24.52;48.94
59154;BME280;44935;48.944;9.418;2023-08-12T07:49:37;98840.27;;;23.70;50.50
59154;BME280;44935;48.944;9.418;2023-08-12T07:52:05;98844.23;;;23.03;52.67
59154;BME280;44935;48.944;9.418;2023-08-12T07:54:31;98845.36;;;24.55;49.81
59154;BME280;44935;48.944;9.418;2023-08-12T07:56:58;98844.69;;;24.25;48.50
59154;BME280;44935;48.944;9.418;2023-08-12T07:59:25;98842.22;;;25.06;47.19
59154;BME280;44935;48.944;9.418;2023-08-12T08:01:52;98836.40;;;24.24;48.13
59154;BME280;44935;48.944;9.418;2023-08-12T08:04:19;98832.85;;;24.22;47.99
59154;BME280;44935;48.944;9.418;2023-08-12T08:06:51;98832.36;;;23.57;50.81
59154;BME280;44935;48.944;9.418;2023-08-12T08:09:18;98828.89;;;24.61;48.11
59154;BME280;44935;48.944;9.418;2023-08-12T08:11:45;98829.57;;;25.30;48.44
59154;BME280;44935;48.944;9.418;2023-08-12T08:14:12;98829.47;;;25.40;46.98
59154;BME280;44935;48.944;9.418;2023-08-12T08:16:39;98828.02;;;24.49;47.42
59154;BME280;44935;48.944;9.418;2023-08-12T08:19:06;98829.91;;;24.84;47.83
59154;BME280;44935;48.944;9.418;2023-08-12T08:21:33;98824.79;;;23.80;48.53
59154;BME280;44935;48.944;9.418;2023-08-12T08:24:00;98821.12;;;25.14;46.40
59154;BME280;44935;48.944;9.418;2023-08-12T08:26:27;98819.32;;;25.72;44.82
59154;BME280;44935;48.944;9.418;2023-08-12T08:28:54;98819.19;;;26.31;43.96
59154;BME280;44935;48.944;9.418;2023-08-12T08:31:21;98814.79;;;24.94;46.44
59154;BME280;44935;48.944;9.418;2023-08-12T08:33:48;98815.11;;;24.97;46.58
59154;BME280;44935;48.944;9.418;2023-08-12T08:36:15;98818.86;;;25.57;44.71
59154;BME280;44935;48.944;9.418;2023-08-12T08:38:42;98816.02;;;26.32;43.68
59154;BME280;44935;48.944;9.418;2023-08-12T08:41:09;98810.25;;;26.30;42.97
59154;BME280;44935;48.944;9.418;2023-08-12T08:43:37;98809.77;;;26.55;42.85
59154;BME280;44935;48.944;9.418;2023-08-12T08:46:05;98811.42;;;25.14;46.12
59154;BME280;44935;48.944;9.418;2023-08-12T08:48:33;98809.83;;;24.86;46.94
59154;BME280;44935;48.944;9.418;2023-08-12T08:51:00;98806.54;;;24.92;45.85
59154;BME280;44935;48.944;9.418;2023-08-12T08:53:28;98805.85;;;25.08;45.18
59154;BME280;44935;48.944;9.418;2023-08-12T08:55:55;98808.10;;;26.18;43.36
59154;BME280;44935;48.944;9.418;2023-08-12T08:58:23;98810.09;;;25.41;47.79
59154;BME280;44935;48.944;9.418;2023-08-12T09:00:50;98811.13;;;24.91;47.34
59154;BME280;44935;48.944;9.418;2023-08-12T09:03:18;98816.06;;;23.73;48.79
59154;BME280;44935;48.944;9.418;2023-08-12T09:05:47;98815.62;;;24.88;46.42
59154;BME280;44935;48.944;9.418;2023-08-12T09:08:14;98821.72;;;26.42;43.67
59154;BME280;44935;48.944;9.418;2023-08-12T09:10:42;98819.36;;;26.66;43.12
59154;BME280;44935;48.944;9.418;2023-08-12T09:13:10;98822.60;;;26.81;43.01
59154;BME280;44935;48.944;9.418;2023-08-12T09:15:37;98818.84;;;26.96;41.11
59154;BME280;44935;48.944;9.418;2023-08-12T09:18:05;98816.29;;;27.25;40.60
59154;BME280;44935;48.944;9.418;2023-08-12T09:20:32;98814.58;;;26.56;42.86
59154;BME280;44935;48.944;9.418;2023-08-12T09:23:00;98816.05;;;26.45;45.03
59154;BME280;44935;48.944;9.418;2023-08-12T09:25:27;98811.15;;;27.45;40.58
59154;BME280;44935;48.944;9.418;2023-08-12T09:27:58;98809.39;;;27.51;40.05
59154;BME280;44935;48.944;9.418;2023-08-12T09:30:28;98810.04;;;27.15;41.42
59154;BME280;44935;48.944;9.418;2023-08-12T09:33:00;98813.01;;;26.09;42.69
59154;BME280;44935;48.944;9.418;2023-08-12T09:35:32;98805.43;;;27.08;40.50
59154;BME280;44935;48.944;9.418;2023-08-12T09:38:01;98814.65;;;26.67;42.66
59154;BME280;44935;48.944;9.418;2023-08-12T09:40:30;98808.77;;;27.36;41.15
59154;BME280;44935;48.944;9.418;2023-08-12T09:43:03;98806.90;;;27.62;40.72
59154;BME280;44935;48.944;9.418;2023-08-12T09:45:30;98806.05;;;28.10;38.43
59154;BME280;44935;48.944;9.418;2023-08-12T09:47:58;98803.47;;;26.92;42.95
59154;BME280;44935;48.944;9.418;2023-08-12T09:50:25;98795.08;;;28.08;39.12
59154;BME280;44935;48.944;9.418;2023-08-12T09:52:54;98793.13;;;27.98;40.55
59154;BME280;44935;48.944;9.418;2023-08-12T09:55:24;98791.73;;;28.65;38.28
59154;BME280;44935;48.944;9.418;2023-08-12T09:57:53;98795.04;;;28.82;37.41
59154;BME280;44935;48.944;9.418;2023-08-12T10:00:21;98791.65;;;28.89;37.59
59154;BME280;44935;48.944;9.418;2023-08-12T10:02:50;98786.62;;;29.43;36.93
59154;BME280;44935;48.944;9.418;2023-08-12T10:05:22;98783.99;;;28.29;38.14
59154;BME280;44935;48.944;9.418;2023-08-12T10:07:51;98779.42;;;28.97;39.25
59154;BME280;44935;48.944;9.418;2023-08-12T10:10:19;98775.19;;;28.83;37.84
59154;BME280;44935;48.944;9.418;2023-08-12T10:12:47;98772.94;;;29.62;36.03
59154;BME280;44935;48.944;9.418;2023-08-12T10:15:14;98769.51;;;29.53;36.89
59154;BME280;44935;48.944;9.418;2023-08-12T10:17:42;98764.71;;;26.84;40.30
59154;BME280;44935;48.944;9.418;2023-08-12T10:20:13;98759.96;;;27.51;40.24
59154;BME280;44935;48.944;9.418;2023-08-12T10:22:43;98748.04;;;28.70;37.37
59154;BME280;44935;48.944;9.418;2023-08-12T10:25:13;98746.22;;;28.51;37.13
59154;BME280;44935;48.944;9.418;2023-08-12T10:27:41;98738.96;;;29.34;37.82
59154;BME280;44935;48.944;9.418;2023-08-12T10:30:09;98729.98;;;29.11;37.74
59154;BME280;44935;48.944;9.418;2023-08-12T10:32:36;98727.93;;;29.86;36.10
59154;BME280;44935;48.944;9.418;2023-08-12T10:35:05;98728.52;;;29.72;35.15
59154;BME280;44935;48.944;9.418;2023-08-12T10:37:33;98731.33;;;29.75;35.77
59154;BME280;44935;48.944;9.418;2023-08-12T10:40:03;98729.47;;;29.36;36.70
59154;BME280;44935;48.944;9.418;2023-08-12T10:42:47;98729.73;;;29.81;36.74
59154;BME280;44935;48.944;9.418;2023-08-12T10:45:15;98739.80;;;29.33;36.25
59154;BME280;44935;48.944;9.418;2023-08-12T10:47:48;98742.60;;;28.52;37.12
59154;BME280;44935;48.944;9.418;2023-08-12T10:50:19;98739.84;;;29.60;36.72
59154;BME280;44935;48.944;9.418;2023-08-12T10:52:47;98748.33;;;29.92;35.70
59154;BME280;44935;48.944;9.418;2023-08-12T10:55:19;98748.85;;;29.00;36.19
59154;BME280;44935;48.944;9.418;2023-08-12T10:57:46;98750.29;;;28.86;36.32
59154;BME280;44935;48.944;9.418;2023-08-12T11:00:14;98748.05;;;29.17;36.12
59154;BME280;44935;48.944;9.418;2023-08-12T11:02:44;98745.88;;;29.34;36.48
59154;BME280;44935;48.944;9.418;2023-08-12T11:05:12;98749.33;;;29.41;36.23
59154;BME280;44935;48.944;9.418;2023-08-12T11:07:41;98748.50;;;30.10;34.73
59154;BME280;44935;48.944;9.418;2023-08-12T11:10:13;98742.13;;;30.40;35.96
59154;BME280;44935;48.944;9.418;2023-08-12T11:12:42;98736.37;;;29.89;35.67
59154;BME280;44935;48.944;9.418;2023-08-12T11:15:12;98733.49;;;30.21;35.18
59154;BME280;44935;48.944;9.418;2023-08-12T11:17:40;98731.41;;;29.53;34.46
59154;BME280;44935;48.944;9.418;2023-08-12T11:20:10;98730.24;;;29.25;35.78
59154;BME280;44935;48.944;9.418;2023-08-12T11:22:40;98726.62;;;29.41;35.65
59154;BME280;44935;48.944;9.418;2023-08-12T11:25:08;98724.86;;;29.92;34.30
59154;BME280;44935;48.944;9.418;2023-08-12T11:27:37;98722.22;;;30.08;33.56
59154;BME280;44935;48.944;9.418;2023-08-12T11:30:06;98718.43;;;30.12;35.87
59154;BME280;44935;48.944;9.418;2023-08-12T11:32:34;98717.74;;;29.99;35.59
59154;BME280;44935;48.944;9.418;2023-08-12T11:35:02;98712.18;;;30.00;36.24
59154;BME280;44935;48.944;9.418;2023-08-12T11:37:28;98707.70;;;30.09;36.24
59154;BME280;44935;48.944;9.418;2023-08-12T11:39:55;98694.56;;;29.78;36.13
59154;BME280;44935;48.944;9.418;2023-08-12T11:42:23;98688.69;;;29.67;34.07
59154;BME280;44935;48.944;9.418;2023-08-12T11:44:50;98695.12;;;30.03;36.85
59154;BME280;44935;48.944;9.418;2023-08-12T11:47:17;98691.69;;;30.44;33.59
59154;BME280;44935;48.944;9.418;2023-08-12T11:49:44;98691.38;;;30.77;33.42
59154;BME280;44935;48.944;9.418;2023-08-12T11:52:11;98688.01;;;31.29;31.53
59154;BME280;44935;48.944;9.418;2023-08-12T11:54:39;98694.05;;;30.67;32.67
59154;BME280;44935;48.944;9.418;2023-08-12T11:57:07;98713.85;;;30.29;33.58
59154;BME280;44935;48.944;9.418;2023-08-12T11:59:34;98721.87;;;30.66;34.16
59154;BME280;44935;48.944;9.418;2023-08-12T12:02:03;98723.32;;;30.42;35.01
59154;BME280;44935;48.944;9.418;2023-08-12T12:04:31;98708.22;;;29.64;37.06
59154;BME280;44935;48.944;9.418;2023-08-12T12:06:58;98707.00;;;28.57;37.61
59154;BME280;44935;48.944;9.418;2023-08-12T12:09:25;98726.13;;;29.47;35.40
59154;BME280;44935;48.944;9.418;2023-08-12T12:11:53;98730.73;;;28.53;37.60
59154;BME280;44935;48.944;9.418;2023-08-12T12:14:21;98739.05;;;29.12;36.59
59154;BME280;44935;48.944;9.418;2023-08-12T12:16:48;98746.52;;;28.61;36.44
59154;BME280;44935;48.944;9.418;2023-08-12T12:19:17;98775.86;;;29.54;39.31
59154;BME280;44935;48.944;9.418;2023-08-12T12:21:46;98849.06;;;22.87;59.22
59154;BME280;44935;48.944;9.418;2023-08-12T12:24:14;98854.65;;;21.11;67.54
59154;BME280;44935;48.944;9.418;2023-08-12T12:26:42;98852.95;;;20.28;70.61
59154;BME280;44935;48.944;9.418;2023-08-12T12:29:10;98848.55;;;20.04;70.02
59154;BME280;44935;48.944;9.418;2023-08-12T12:31:38;98834.16;;;20.49;64.65
59154;BME280;44935;48.944;9.418;2023-08-12T12:34:07;98813.44;;;19.58;63.38
59154;BME280;44935;48.944;9.418;2023-08-12T12:36:35;98808.54;;;21.15;59.07
59154;BME280;44935;48.944;9.418;2023-08-12T12:39:03;98815.86;;;23.19;55.00
59154;BME280;44935;48.944;9.418;2023-08-12T12:41:30;98853.66;;;22.89;57.08
59154;BME280;44935;48.944;9.418;2023-08-12T12:43:59;98881.54;;;21.27;62.21
59154;BME280;44935;48.944;9.418;2023-08-12T12:46:27;98884.05;;;21.62;61.66
59154;BME280;44935;48.944;9.418;2023-08-12T12:48:54;98876.07;;;22.10;59.05
59154;BME280;44935;48.944;9.418;2023-08-12T12:51:21;98853.34;;;20.64;63.29
59154;BME280;44935;48.944;9.418;2023-08-12T12:53:48;98853.61;;;19.67;65.18
59154;BME280;44935;48.944;9.418;2023-08-12T12:56:16;98865.14;;;20.40;64.16
59154;BME280;44935;48.944;9.418;2023-08-12T12:58:44;98883.27;;;22.45;60.15
59154;BME280;44935;48.944;9.418;2023-08-12T13:01:10;98900.47;;;23.63;58.03
59154;BME280;44935;48.944;9.418;2023-08-12T13:03:37;98915.18;;;22.56;58.97